createdAt,value
2022-08-12T00:01:02.370Z,18.20
2022-08-12T00:03:47.923Z,18.20
2022-08-12T00:06:33.977Z,18.20
2022-08-12T00:09:24.397Z,18.20
2022-08-12T00:12:12.738Z,18.10
2022-08-12T00:14:59.126Z,18.10
2022-08-12T00:17:44.658Z,18.00
2022-08-12T00:20:30.365Z,18.00
2022-08-12T00:23:17.249Z,18.10
2022-08-12T00:26:22.816Z,18.00
2022-08-12T00:29:11.829Z,18.00
2022-08-12T00:31:58.562Z,18.00
2022-08-12T00:34:46.642Z,18.00
2022-08-12T00:37:34.912Z,17.90
2022-08-12T00:40:21.882Z,17.90
2022-08-12T00:42:49.323Z,17.90
2022-08-12T00:45:16.187Z,17.90
2022-08-12T00:47:44.244Z,17.90
2022-08-12T00:50:18.249Z,17.80
2022-08-12T00:52:47.155Z,17.80
2022-08-12T00:55:15.403Z,17.80
2022-08-12T00:57:47.821Z,17.70
2022-08-12T01:00:19.148Z,17.70
2022-08-12T01:02:51.615Z,17.80
2022-08-12T01:05:40.290Z,17.80
2022-08-12T01:08:26.444Z,17.80
2022-08-12T01:11:13.921Z,17.80
2022-08-12T01:13:47.400Z,17.80
2022-08-12T01:16:17.499Z,17.70
2022-08-12T01:18:45.411Z,17.70
2022-08-12T01:21:27.222Z,17.70
2022-08-12T01:24:29.909Z,17.60
2022-08-12T01:27:00.126Z,17.60
2022-08-12T01:29:33.162Z,17.50
2022-08-12T01:32:06.328Z,17.50
2022-08-12T01:34:39.628Z,17.50
2022-08-12T01:37:08.606Z,17.50
2022-08-12T01:39:35.464Z,17.40
2022-08-12T01:42:11.078Z,17.40
2022-08-12T01:44:38.882Z,17.40
2022-08-12T01:47:13.998Z,17.30
2022-08-12T01:49:45.096Z,17.30
2022-08-12T01:52:35.172Z,17.20
2022-08-12T01:55:07.048Z,17.10
2022-08-12T01:57:58.701Z,17.00
2022-08-12T02:00:35.588Z,17.00
2022-08-12T02:03:19.668Z,16.90
2022-08-12T02:06:24.017Z,16.80
2022-08-12T02:09:16.563Z,16.80
2022-08-12T02:12:05.343Z,16.70
2022-08-12T02:15:01.975Z,16.70
2022-08-12T02:17:55.028Z,16.70
2022-08-12T02:20:51.300Z,16.60
2022-08-12T02:23:26.655Z,16.60
2022-08-12T02:25:58.302Z,16.60
2022-08-12T02:28:25.671Z,16.60
2022-08-12T02:30:53.238Z,16.60
2022-08-12T02:33:21.137Z,16.60
2022-08-12T02:35:48.642Z,16.60
2022-08-12T02:38:17.571Z,16.60
2022-08-12T02:40:47.837Z,16.60
2022-08-12T02:43:19.774Z,16.70
2022-08-12T02:46:01.690Z,16.60
2022-08-12T02:48:35.779Z,16.70
2022-08-12T02:51:07.031Z,16.70
2022-08-12T02:53:36.075Z,16.80
2022-08-12T02:56:04.086Z,16.80
2022-08-12T02:58:33.455Z,16.80
2022-08-12T03:01:01.834Z,16.90
2022-08-12T03:03:33.647Z,16.90
2022-08-12T03:06:08.883Z,16.80
2022-08-12T03:08:49.161Z,16.80
2022-08-12T03:11:37.735Z,16.80
2022-08-12T03:14:14.198Z,16.80
2022-08-12T03:16:41.203Z,16.80
2022-08-12T03:19:08.939Z,16.80
2022-08-12T03:21:52.891Z,16.90
2022-08-12T03:24:27.566Z,16.90
2022-08-12T03:27:00.424Z,16.90
2022-08-12T03:29:33.057Z,16.90
2022-08-12T03:32:35.880Z,16.90
2022-08-12T03:35:07.871Z,16.90
2022-08-12T03:37:36.662Z,16.90
2022-08-12T03:40:04.380Z,17.00
2022-08-12T03:42:41.563Z,17.00
2022-08-12T03:45:52.721Z,17.00
2022-08-12T03:48:39.222Z,17.10
2022-08-12T03:51:24.865Z,17.00
2022-08-12T03:54:11.511Z,17.10
2022-08-12T03:56:57.975Z,17.10
2022-08-12T03:59:43.977Z,17.10
2022-08-12T04:02:17.977Z,17.20
2022-08-12T04:04:45.740Z,17.20
2022-08-12T04:07:14.495Z,17.20
2022-08-12T04:09:43.500Z,17.20
2022-08-12T04:12:32.742Z,17.20
2022-08-12T04:15:01.503Z,17.20
2022-08-12T04:17:29.064Z,17.30
2022-08-12T04:19:58.004Z,17.30
2022-08-12T04:22:31.020Z,17.40
2022-08-12T04:25:04.591Z,17.40
2022-08-12T04:27:33.800Z,17.40
2022-08-12T04:30:17.221Z,17.50
2022-08-12T04:32:50.574Z,17.50
2022-08-12T04:35:18.250Z,17.60
2022-08-12T04:37:59.105Z,17.60
2022-08-12T04:40:30.360Z,17.70
2022-08-12T04:42:58.377Z,17.70
2022-08-12T04:45:25.518Z,17.80
2022-08-12T04:47:53.711Z,17.90
2022-08-12T04:50:34.855Z,17.90
2022-08-12T04:53:06.331Z,18.00
2022-08-12T04:55:34.851Z,18.10
2022-08-12T04:58:01.972Z,18.20
2022-08-12T05:00:29.249Z,18.30
2022-08-12T05:02:56.376Z,18.40
2022-08-12T05:05:24.311Z,18.50
2022-08-12T05:07:54.181Z,18.60
2022-08-12T05:10:33.926Z,18.70
2022-08-12T05:13:07.123Z,18.70
2022-08-12T05:15:36.021Z,18.80
2022-08-12T05:18:19.004Z,18.90
2022-08-12T05:20:48.410Z,18.90
2022-08-12T05:23:18.444Z,19.10
2022-08-12T05:25:48.094Z,19.20
2022-08-12T05:28:18.829Z,19.30
2022-08-12T05:30:46.562Z,19.40
2022-08-12T05:33:15.995Z,19.50
2022-08-12T05:35:45.754Z,19.60
2022-08-12T05:38:33.370Z,19.70
2022-08-12T05:41:01.327Z,19.80
2022-08-12T05:43:29.062Z,19.90
2022-08-12T05:45:56.235Z,19.90
2022-08-12T05:48:23.450Z,20.00
2022-08-12T05:50:50.455Z,20.20
2022-08-12T05:53:17.318Z,20.30
2022-08-12T05:55:44.348Z,20.50
2022-08-12T05:58:11.307Z,20.60
2022-08-12T06:00:38.193Z,20.70
2022-08-12T06:03:08.190Z,20.80
2022-08-12T06:05:51.888Z,21.00
2022-08-12T06:08:23.395Z,21.00
2022-08-12T06:10:50.671Z,21.10
2022-08-12T06:13:28.442Z,21.10
2022-08-12T06:16:07.892Z,21.20
2022-08-12T06:18:35.620Z,21.20
2022-08-12T06:21:02.849Z,21.20
2022-08-12T06:23:30.506Z,21.20
2022-08-12T06:25:58.934Z,21.20
2022-08-12T06:28:28.129Z,21.20
2022-08-12T06:31:24.232Z,21.20
2022-08-12T06:33:57.713Z,21.30
2022-08-12T06:36:33.843Z,21.40
2022-08-12T06:39:01.506Z,21.50
2022-08-12T06:42:30.633Z,21.60
2022-08-12T06:44:34.490Z,21.70
2022-08-12T06:47:01.564Z,21.80
2022-08-12T06:49:34.797Z,21.90
2022-08-12T06:52:04.569Z,22.00
2022-08-12T06:54:33.319Z,22.00
2022-08-12T06:57:57.297Z,22.00
2022-08-12T06:59:48.618Z,22.10
2022-08-12T07:02:15.906Z,22.10
2022-08-12T07:04:43.644Z,22.20
2022-08-12T07:07:11.081Z,22.30
2022-08-12T07:10:04.463Z,22.40
2022-08-12T07:12:28.390Z,22.50
2022-08-12T07:15:02.009Z,22.50
2022-08-12T07:17:35.860Z,22.60
2022-08-12T07:20:06.143Z,22.60
2022-08-12T07:22:34.201Z,22.70
2022-08-12T07:25:19.906Z,22.70
2022-08-12T07:27:46.947Z,22.70
2022-08-12T07:30:14.486Z,22.80
2022-08-12T07:32:41.504Z,22.90
2022-08-12T07:35:08.908Z,22.90
2022-08-12T07:37:42.077Z,23.00
2022-08-12T07:40:11.857Z,23.00
2022-08-12T07:42:41.777Z,23.00
2022-08-12T07:45:09.682Z,23.00
2022-08-12T07:47:38.037Z,23.10
2022-08-12T07:50:09.331Z,23.20
2022-08-12T07:52:39.427Z,23.30
2022-08-12T07:55:07.352Z,23.40
2022-08-12T07:57:36.011Z,23.40
2022-08-12T08:00:06.313Z,23.50
2022-08-12T08:02:33.914Z,23.60
2022-08-12T08:05:01.582Z,23.60
2022-08-12T08:07:30.494Z,23.60
2022-08-12T08:10:00.392Z,23.70
2022-08-12T08:12:47.486Z,23.80
2022-08-12T08:15:15.943Z,23.80
2022-08-12T08:18:05.005Z,23.90
2022-08-12T08:20:35.555Z,24.00
2022-08-12T08:23:07.999Z,24.10
2022-08-12T08:25:37.694Z,24.20
2022-08-12T08:28:18.879Z,24.20
2022-08-12T08:30:47.931Z,24.20
2022-08-12T08:33:23.252Z,24.20
2022-08-12T08:35:54.423Z,24.20
2022-08-12T08:38:31.761Z,24.20
2022-08-12T08:42:17.303Z,24.30
2022-08-12T08:44:07.224Z,24.30
2022-08-12T08:46:37.910Z,24.40
2022-08-12T08:49:06.288Z,24.60
2022-08-12T08:51:33.878Z,24.80
2022-08-12T08:54:01.184Z,25.10
2022-08-12T08:56:30.855Z,25.30
2022-08-12T08:59:00.236Z,25.40
2022-08-12T09:01:37.348Z,25.60
2022-08-12T09:05:07.459Z,25.70
2022-08-12T09:07:16.760Z,25.70
2022-08-12T09:10:02.614Z,25.70
2022-08-12T09:12:54.587Z,25.70
2022-08-12T09:18:11.975Z,26.00
2022-08-12T09:20:42.511Z,26.10
2022-08-12T09:26:03.763Z,26.10
2022-08-12T09:28:33.538Z,26.10
2022-08-12T09:31:00.614Z,26.10
2022-08-12T09:34:25.894Z,26.20
2022-08-12T09:36:31.441Z,26.40
2022-08-12T09:40:05.289Z,26.70
2022-08-12T09:42:54.248Z,26.90
2022-08-12T09:45:24.657Z,27.00
2022-08-12T09:48:09.693Z,27.10
2022-08-12T09:50:36.885Z,27.00
2022-08-12T09:53:16.159Z,27.10
2022-08-12T09:56:07.015Z,27.20
2022-08-12T09:58:58.358Z,27.20
2022-08-12T10:01:24.605Z,27.30
2022-08-12T10:04:03.219Z,27.40
2022-08-12T10:06:35.868Z,27.40
2022-08-12T10:09:08.700Z,27.40
2022-08-12T10:12:12.367Z,27.30
2022-08-12T10:14:52.553Z,27.20
2022-08-12T10:17:22.793Z,27.00
2022-08-12T10:19:53.103Z,26.90
2022-08-12T10:22:40.522Z,26.70
2022-08-12T10:26:34.099Z,26.70
2022-08-12T10:28:38.158Z,26.70
2022-08-12T10:31:06.731Z,26.80
2022-08-12T10:34:04.954Z,26.90
2022-08-12T10:36:40.870Z,26.90
2022-08-12T10:40:01.911Z,26.90
2022-08-12T10:42:29.150Z,26.90
2022-08-12T10:45:03.984Z,26.70
2022-08-12T10:48:19.247Z,26.70
2022-08-12T10:50:29.457Z,26.60
2022-08-12T10:53:09.048Z,26.60
2022-08-12T10:55:36.575Z,26.50
2022-08-12T10:58:14.929Z,26.50
2022-08-12T11:00:55.093Z,26.50
2022-08-12T11:04:23.738Z,26.50
2022-08-12T11:07:09.475Z,26.60
2022-08-12T11:08:58.733Z,26.60
2022-08-12T11:12:37.054Z,26.50
2022-08-12T11:14:49.334Z,26.50
2022-08-12T11:17:34.396Z,26.50
2022-08-12T11:20:05.551Z,26.60
2022-08-12T11:22:32.839Z,26.60
2022-08-12T11:25:00.058Z,26.70
2022-08-12T11:27:28.711Z,26.90
2022-08-12T11:30:06.250Z,27.00
2022-08-12T11:32:38.543Z,27.20
2022-08-12T11:35:06.824Z,27.40
2022-08-12T11:37:57.905Z,27.60
2022-08-12T11:40:23.092Z,27.90
2022-08-12T11:42:50.594Z,28.20
2022-08-12T11:45:19.781Z,28.40
2022-08-12T11:47:46.982Z,28.70
2022-08-12T11:50:19.741Z,28.90
2022-08-12T11:52:55.756Z,29.00
2022-08-12T11:55:23.400Z,29.20
2022-08-12T11:58:33.861Z,29.30
2022-08-12T12:03:43.927Z,29.80
2022-08-12T12:06:17.088Z,29.90
2022-08-12T12:08:50.774Z,29.90
2022-08-12T12:11:19.173Z,29.90
2022-08-12T12:14:06.536Z,29.90
2022-08-12T12:16:38.189Z,29.90
2022-08-12T12:19:10.210Z,29.90
2022-08-12T12:21:47.814Z,30.20
2022-08-12T12:24:20.889Z,30.40
2022-08-12T12:27:00.458Z,30.80
2022-08-12T12:30:17.963Z,31.10
2022-08-12T12:32:28.839Z,31.20
2022-08-12T12:35:14.570Z,31.30
2022-08-12T12:38:05.256Z,31.30
2022-08-12T12:40:44.158Z,31.30
2022-08-12T12:43:13.936Z,31.10
2022-08-12T12:45:44.528Z,30.80
2022-08-12T12:48:15.966Z,30.70
2022-08-12T12:50:51.413Z,30.50
2022-08-12T12:54:06.357Z,30.30
2022-08-12T12:56:34.057Z,30.20
2022-08-12T12:59:06.261Z,30.10
2022-08-12T13:01:38.161Z,30.00
2022-08-12T13:04:12.156Z,29.90
2022-08-12T13:06:41.963Z,29.90
2022-08-12T13:09:13.289Z,30.00
2022-08-12T13:11:44.345Z,30.10
2022-08-12T13:14:29.166Z,30.20
2022-08-12T13:17:02.950Z,30.30
2022-08-12T13:19:46.785Z,30.50
2022-08-12T13:22:19.594Z,30.60
2022-08-12T13:24:56.157Z,30.70
2022-08-12T13:27:48.294Z,30.80
2022-08-12T13:30:20.544Z,30.80
2022-08-12T13:32:58.687Z,30.80
2022-08-12T13:36:02.805Z,30.70
2022-08-12T13:38:26.859Z,30.80
2022-08-12T13:41:02.867Z,31.20
2022-08-12T13:43:40.911Z,31.70
2022-08-12T13:46:12.235Z,32.40
2022-08-12T13:48:45.070Z,33.20
2022-08-12T13:51:14.179Z,34.00
2022-08-12T13:53:58.299Z,34.90
2022-08-12T13:56:30.548Z,35.60
2022-08-12T13:59:07.729Z,36.10
2022-08-12T14:01:40.632Z,36.50
2022-08-12T14:04:11.408Z,36.70
2022-08-12T14:06:40.155Z,36.90
2022-08-12T14:09:17.422Z,37.00
2022-08-12T14:11:51.330Z,36.80
2022-08-12T14:14:31.497Z,36.40
2022-08-12T14:17:09.908Z,35.90
2022-08-12T14:19:48.666Z,35.30
2022-08-12T14:22:20.849Z,34.70
2022-08-12T14:24:55.610Z,34.10
2022-08-12T14:28:03.611Z,33.70
2022-08-12T14:30:24.043Z,33.40
2022-08-12T14:32:56.042Z,33.00
2022-08-12T14:35:24.435Z,32.70
2022-08-12T14:37:57.062Z,32.40
2022-08-12T14:40:29.712Z,31.90
2022-08-12T14:43:00.142Z,31.50
2022-08-12T14:45:44.549Z,31.00
2022-08-12T14:48:18.702Z,30.60
2022-08-12T14:51:09.430Z,30.20
2022-08-12T14:59:57.860Z,29.10
2022-08-12T15:02:19.635Z,28.70
2022-08-12T15:04:59.839Z,28.20
2022-08-12T15:07:33.490Z,27.80
2022-08-12T15:10:31.059Z,27.40
2022-08-12T15:13:07.420Z,27.00
2022-08-12T15:15:43.796Z,26.70
2022-08-12T15:18:21.645Z,26.50
2022-08-12T15:20:52.289Z,26.30
2022-08-12T15:23:23.128Z,26.10
2022-08-12T15:26:02.963Z,25.90
2022-08-12T15:28:35.564Z,25.60
2022-08-12T15:31:21.365Z,25.30
2022-08-12T15:33:52.740Z,25.00
2022-08-12T15:36:53.726Z,24.40
2022-08-12T15:39:16.915Z,23.80
2022-08-12T15:41:49.720Z,23.30
2022-08-12T15:44:42.215Z,23.00
2022-08-12T15:47:05.783Z,22.70
2022-08-12T15:49:54.659Z,22.40
2022-08-12T15:52:27.518Z,22.30
2022-08-12T15:54:58.929Z,22.20
2022-08-12T15:57:27.420Z,22.10
2022-08-12T16:00:06.618Z,22.10
2022-08-12T16:02:50.340Z,22.10
2022-08-12T16:06:11.322Z,22.20
2022-08-12T16:08:15.305Z,22.10
2022-08-12T16:10:45.771Z,22.00
2022-08-12T16:13:15.017Z,21.90
2022-08-12T16:15:51.083Z,21.90
2022-08-12T16:18:35.657Z,21.90
2022-08-12T16:21:08.998Z,21.80
2022-08-12T16:23:55.386Z,21.70
2022-08-12T16:26:32.132Z,21.60
2022-08-12T16:29:15.056Z,21.60
2022-08-12T16:31:43.063Z,21.50
2022-08-12T16:34:40.028Z,21.40
2022-08-12T16:37:08.753Z,21.30
2022-08-12T16:40:00.218Z,21.30
2022-08-12T16:42:27.734Z,21.30
2022-08-12T16:44:59.908Z,21.20
2022-08-12T16:47:43.915Z,21.20
2022-08-12T16:50:31.209Z,21.10
2022-08-12T16:52:59.860Z,20.90
2022-08-12T16:55:42.250Z,20.80
2022-08-12T16:58:18.422Z,20.70
2022-08-12T17:00:48.339Z,20.50
2022-08-12T17:03:28.647Z,20.40
2022-08-12T17:05:56.519Z,20.30
2022-08-12T17:08:29.027Z,20.30
2022-08-12T17:10:56.437Z,20.20
2022-08-12T17:13:26.189Z,20.30
2022-08-12T17:16:05.520Z,20.40
2022-08-12T17:18:42.742Z,20.40
2022-08-12T17:21:19.623Z,20.60
2022-08-12T17:23:53.790Z,20.70
2022-08-12T17:26:31.119Z,20.70
2022-08-12T17:28:59.676Z,20.80
2022-08-12T17:32:00.862Z,20.90
2022-08-12T17:34:38.627Z,21.00
2022-08-12T17:37:06.497Z,21.00
2022-08-12T17:40:07.473Z,21.10
2022-08-12T17:42:32.504Z,21.20
2022-08-12T17:45:18.040Z,21.20
2022-08-12T17:48:00.873Z,21.20
2022-08-12T17:50:30.040Z,21.20
2022-08-12T17:53:03.197Z,21.10
2022-08-12T17:55:44.505Z,21.00
2022-08-12T17:58:36.817Z,21.00
2022-08-12T18:01:06.261Z,21.00
2022-08-12T18:04:05.698Z,20.90
2022-08-12T18:06:28.200Z,20.90
2022-08-12T18:08:59.174Z,20.90
2022-08-12T18:12:04.183Z,20.90
2022-08-12T18:14:37.219Z,20.90
2022-08-12T18:17:08.777Z,20.90
2022-08-12T18:20:05.082Z,20.90
2022-08-12T18:22:31.459Z,20.90
2022-08-12T18:25:17.294Z,20.90
2022-08-12T18:28:15.706Z,20.90
2022-08-12T18:30:52.504Z,20.90
2022-08-12T18:33:23.838Z,20.90
2022-08-12T18:35:53.629Z,20.90
2022-08-12T18:38:24.642Z,20.90
2022-08-12T18:41:12.750Z,20.90
2022-08-12T18:44:01.273Z,20.90
2022-08-12T18:46:55.432Z,20.90
2022-08-12T18:49:39.238Z,20.90
2022-08-12T18:52:08.769Z,20.80
2022-08-12T18:54:48.864Z,20.80
2022-08-12T18:57:45.493Z,20.80
2022-08-12T19:00:17.947Z,20.70
2022-08-12T19:02:50.332Z,20.70
2022-08-12T19:05:19.934Z,20.70
2022-08-12T19:08:00.566Z,20.60
2022-08-12T19:10:31.760Z,20.60
2022-08-12T19:13:24.365Z,20.60
2022-08-12T19:15:57.873Z,20.60
2022-08-12T19:18:29.463Z,20.60
2022-08-12T19:20:56.884Z,20.50
2022-08-12T19:23:33.749Z,20.50
2022-08-12T19:26:03.648Z,20.50
2022-08-12T19:28:34.416Z,20.40
2022-08-12T19:31:56.176Z,20.40
2022-08-12T19:38:03.097Z,20.40
2022-08-12T19:40:20.118Z,20.40
2022-08-12T19:43:01.663Z,20.40
2022-08-12T19:45:43.406Z,20.40
2022-08-12T19:48:21.189Z,20.40
2022-08-12T19:50:52.654Z,20.40
2022-08-12T19:53:22.541Z,20.40
2022-08-12T19:55:53.073Z,20.40
2022-08-12T19:58:21.685Z,20.40
2022-08-12T20:00:56.262Z,20.40
2022-08-12T20:03:38.220Z,20.40
2022-08-12T20:06:11.097Z,20.50
2022-08-12T20:08:48.816Z,20.50
2022-08-12T20:12:14.380Z,20.50
2022-08-12T20:14:09.629Z,20.50
2022-08-12T20:16:52.338Z,20.50
2022-08-12T20:19:52.086Z,20.50
2022-08-12T20:22:23.589Z,20.50
2022-08-12T20:24:55.299Z,20.50
2022-08-12T20:27:29.268Z,20.50
2022-08-12T20:30:14.007Z,20.50
2022-08-12T20:32:54.942Z,20.40
2022-08-12T20:35:24.424Z,20.40
2022-08-12T20:38:07.351Z,20.40
2022-08-12T20:40:39.631Z,20.40
2022-08-12T20:43:08.545Z,20.40
2022-08-12T20:45:44.944Z,20.40
2022-08-12T20:48:18.313Z,20.30
2022-08-12T20:50:53.526Z,20.30
2022-08-12T20:53:28.886Z,20.30
2022-08-12T20:56:22.237Z,20.40
2022-08-12T20:59:00.110Z,20.40
2022-08-12T21:01:29.173Z,20.40
2022-08-12T21:04:32.015Z,20.40
2022-08-12T21:07:08.263Z,20.30
2022-08-12T21:09:44.616Z,20.40
2022-08-12T21:12:28.736Z,20.40
2022-08-12T21:15:23.706Z,20.40
2022-08-12T21:18:20.745Z,20.40
2022-08-12T21:20:56.030Z,20.40
2022-08-12T21:23:23.555Z,20.40
2022-08-12T21:26:01.056Z,20.40
2022-08-12T21:28:31.195Z,20.40
2022-08-12T21:32:36.083Z,20.40
2022-08-12T21:34:07.569Z,20.40
2022-08-12T21:36:39.721Z,20.40
2022-08-12T21:39:21.091Z,20.40
2022-08-12T21:41:52.551Z,20.40
2022-08-12T21:45:48.390Z,20.30
2022-08-12T21:47:21.110Z,20.30
2022-08-12T21:50:04.186Z,20.30
2022-08-12T21:52:40.858Z,20.30
2022-08-12T21:55:19.491Z,20.30
2022-08-12T21:57:54.762Z,20.30
2022-08-12T22:00:35.133Z,20.30
2022-08-12T22:04:01.929Z,20.30
2022-08-12T22:06:20.353Z,20.30
2022-08-12T22:09:02.652Z,20.30
2022-08-12T22:11:42.394Z,20.30
2022-08-12T22:14:18.005Z,20.30
2022-08-12T22:16:50.512Z,20.30
2022-08-12T22:19:19.518Z,20.20
2022-08-12T22:21:48.492Z,20.20
2022-08-12T22:24:26.981Z,20.30
2022-08-12T22:27:08.085Z,20.20
2022-08-12T22:30:06.895Z,20.10
2022-08-12T22:32:34.429Z,20.10
2022-08-12T22:35:22.298Z,20.20
2022-08-12T22:38:10.957Z,20.20
2022-08-12T22:40:39.163Z,20.20
2022-08-12T22:43:30.835Z,20.10
2022-08-12T22:46:17.022Z,20.10
2022-08-12T22:48:50.664Z,20.10
2022-08-12T22:51:24.629Z,20.10
2022-08-12T22:53:55.281Z,20.20
2022-08-12T22:56:31.088Z,20.20
2022-08-12T22:59:02.826Z,20.20
2022-08-12T23:01:52.167Z,20.30
2022-08-12T23:04:28.612Z,20.20
2022-08-12T23:07:05.533Z,20.30
2022-08-12T23:09:44.798Z,20.20
2022-08-12T23:12:37.458Z,20.20
2022-08-12T23:15:13.885Z,20.20
2022-08-12T23:17:42.013Z,20.30
2022-08-12T23:20:11.478Z,20.30
2022-08-12T23:23:08.877Z,20.30
2022-08-12T23:25:32.580Z,20.30
2022-08-12T23:28:37.264Z,20.30
2022-08-12T23:31:06.550Z,20.30
2022-08-12T23:34:01.915Z,20.30
2022-08-12T23:36:32.727Z,20.30
2022-08-12T23:40:14.524Z,20.30
2022-08-12T23:42:17.836Z,20.30
2022-08-12T23:44:43.839Z,20.30
2022-08-12T23:47:12.679Z,20.30
2022-08-12T23:49:57.513Z,20.20
2022-08-12T23:52:34.050Z,20.20
2022-08-12T23:55:24.695Z,20.20
2022-08-12T23:58:17.072Z,20.10
